sensor_id;sensor_type;location;lat;lon;timestamp;temperature;humidity
11838;DHT22;5978;51.020;6.764;2023-05-10T00:01:54;13.90;99.90
11838;DHT22;5978;51.020;6.764;2023-05-10T00:04:20;13.90;99.90
11838;DHT22;5978;51.020;6.764;2023-05-10T00:06:45;14.00;99.90
11838;DHT22;5978;51.020;6.764;2023-05-10T00:09:11;14.00;99.90
11838;DHT22;5978;51.020;6.764;2023-05-10T00:11:36;13.90;99.90
11838;DHT22;5978;51.020;6.764;2023-05-10T00:14:02;13.90;99.90
11838;DHT22;5978;51.020;6.764;2023-05-10T00:16:28;14.00;99.90
11838;DHT22;5978;51.020;6.764;2023-05-10T00:18:53;14.00;99.90
11838;DHT22;5978;51.020;6.764;2023-05-10T00:21:19;14.00;99.90
11838;DHT22;5978;51.020;6.764;2023-05-10T00:23:45;14.00;99.90
11838;DHT22;5978;51.020;6.764;2023-05-10T00:26:10;13.90;99.90
11838;DHT22;5978;51.020;6.764;2023-05-10T00:28:36;14.00;99.90
11838;DHT22;5978;51.020;6.764;2023-05-10T00:31:01;13.90;99.90
11838;DHT22;5978;51.020;6.764;2023-05-10T00:33:27;13.90;99.90
11838;DHT22;5978;51.020;6.764;2023-05-10T00:35:53;14.00;99.90
11838;DHT22;5978;51.020;6.764;2023-05-10T00:38:18;14.00;99.90
11838;DHT22;5978;51.020;6.764;2023-05-10T00:40:44;14.00;99.90
11838;DHT22;5978;51.020;6.764;2023-05-10T00:43:09;14.00;99.90
11838;DHT22;5978;51.020;6.764;2023-05-10T00:45:36;14.10;99.90
11838;DHT22;5978;51.020;6.764;2023-05-10T00:48:02;14.00;99.90
11838;DHT22;5978;51.020;6.764;2023-05-10T00:50:29;14.10;99.90
11838;DHT22;5978;51.020;6.764;2023-05-10T00:52:56;14.10;99.90
11838;DHT22;5978;51.020;6.764;2023-05-10T00:55:23;14.00;99.90
11838;DHT22;5978;51.020;6.764;2023-05-10T00:57:49;14.00;99.90
11838;DHT22;5978;51.020;6.764;2023-05-10T01:00:15;14.10;99.90
11838;DHT22;5978;51.020;6.764;2023-05-10T01:02:44;14.00;99.90
11838;DHT22;5978;51.020;6.764;2023-05-10T01:05:10;14.00;99.90
11838;DHT22;5978;51.020;6.764;2023-05-10T01:07:36;13.90;99.90
11838;DHT22;5978;51.020;6.764;2023-05-10T01:10:02;13.90;99.90
11838;DHT22;5978;51.020;6.764;2023-05-10T01:12:28;14.00;99.90
11838;DHT22;5978;51.020;6.764;2023-05-10T01:14:54;14.00;99.90
11838;DHT22;5978;51.020;6.764;2023-05-10T01:17:20;14.10;99.90
11838;DHT22;5978;51.020;6.764;2023-05-10T01:19:46;14.20;99.90
11838;DHT22;5978;51.020;6.764;2023-05-10T01:31:07;14.40;99.90
11838;DHT22;5978;51.020;6.764;2023-05-10T01:36:29;14.40;99.90
11838;DHT22;5978;51.020;6.764;2023-05-10T01:42:08;14.40;99.90
11838;DHT22;5978;51.020;6.764;2023-05-10T01:48:10;14.30;99.90
11838;DHT22;5978;51.020;6.764;2023-05-10T01:50:30;14.30;99.90
11838;DHT22;5978;51.020;6.764;2023-05-10T01:52:58;14.30;99.90
11838;DHT22;5978;51.020;6.764;2023-05-10T01:55:27;14.20;99.90
11838;DHT22;5978;51.020;6.764;2023-05-10T01:58:03;14.20;99.90
11838;DHT22;5978;51.020;6.764;2023-05-10T02:00:30;14.20;99.90
11838;DHT22;5978;51.020;6.764;2023-05-10T02:02:57;14.30;99.90
11838;DHT22;5978;51.020;6.764;2023-05-10T02:05:24;14.20;99.90
11838;DHT22;5978;51.020;6.764;2023-05-10T02:07:50;14.30;99.90
11838;DHT22;5978;51.020;6.764;2023-05-10T02:10:17;14.30;99.90
11838;DHT22;5978;51.020;6.764;2023-05-10T02:12:46;14.30;99.90
11838;DHT22;5978;51.020;6.764;2023-05-10T02:15:16;14.30;99.90
11838;DHT22;5978;51.020;6.764;2023-05-10T02:17:43;14.40;99.90
11838;DHT22;5978;51.020;6.764;2023-05-10T02:20:11;14.30;99.90
11838;DHT22;5978;51.020;6.764;2023-05-10T02:22:38;14.30;99.90
11838;DHT22;5978;51.020;6.764;2023-05-10T02:25:07;14.40;99.90
11838;DHT22;5978;51.020;6.764;2023-05-10T02:27:34;14.40;99.90
11838;DHT22;5978;51.020;6.764;2023-05-10T02:30:00;14.40;99.90
11838;DHT22;5978;51.020;6.764;2023-05-10T02:32:27;14.40;99.90
11838;DHT22;5978;51.020;6.764;2023-05-10T02:34:54;14.50;99.90
11838;DHT22;5978;51.020;6.764;2023-05-10T02:37:21;14.50;99.90
11838;DHT22;5978;51.020;6.764;2023-05-10T02:39:49;14.50;99.90
11838;DHT22;5978;51.020;6.764;2023-05-10T02:42:18;14.50;99.90
11838;DHT22;5978;51.020;6.764;2023-05-10T02:44:48;14.50;99.90
11838;DHT22;5978;51.020;6.764;2023-05-10T02:47:16;14.50;99.90
11838;DHT22;5978;51.020;6.764;2023-05-10T02:49:42;14.50;99.90
11838;DHT22;5978;51.020;6.764;2023-05-10T02:52:08;14.50;99.90
11838;DHT22;5978;51.020;6.764;2023-05-10T02:54:43;14.50;99.90
11838;DHT22;5978;51.020;6.764;2023-05-10T02:57:12;14.40;99.90
11838;DHT22;5978;51.020;6.764;2023-05-10T02:59:40;14.40;99.90
11838;DHT22;5978;51.020;6.764;2023-05-10T03:02:08;14.40;99.90
11838;DHT22;5978;51.020;6.764;2023-05-10T03:04:34;14.40;99.90
11838;DHT22;5978;51.020;6.764;2023-05-10T03:07:00;14.30;99.90
11838;DHT22;5978;51.020;6.764;2023-05-10T03:09:26;14.30;99.90
11838;DHT22;5978;51.020;6.764;2023-05-10T03:17:22;14.30;99.90
11838;DHT22;5978;51.020;6.764;2023-05-10T03:22:45;14.30;99.90
11838;DHT22;5978;51.020;6.764;2023-05-10T03:25:12;14.20;99.90
11838;DHT22;5978;51.020;6.764;2023-05-10T03:27:40;14.20;99.90
11838;DHT22;5978;51.020;6.764;2023-05-10T03:30:08;14.20;99.90
11838;DHT22;5978;51.020;6.764;2023-05-10T03:32:35;14.30;99.90
11838;DHT22;5978;51.020;6.764;2023-05-10T03:35:06;14.30;99.90
11838;DHT22;5978;51.020;6.764;2023-05-10T03:37:31;14.20;99.90
11838;DHT22;5978;51.020;6.764;2023-05-10T03:39:57;14.20;99.90
11838;DHT22;5978;51.020;6.764;2023-05-10T03:42:22;14.20;99.90
11838;DHT22;5978;51.020;6.764;2023-05-10T03:44:48;14.20;99.90
11838;DHT22;5978;51.020;6.764;2023-05-10T03:47:14;14.20;99.90
11838;DHT22;5978;51.020;6.764;2023-05-10T03:49:40;14.20;99.90
11838;DHT22;5978;51.020;6.764;2023-05-10T03:52:05;14.30;99.90
11838;DHT22;5978;51.020;6.764;2023-05-10T03:54:31;14.30;99.90
11838;DHT22;5978;51.020;6.764;2023-05-10T03:56:57;14.40;99.90
11838;DHT22;5978;51.020;6.764;2023-05-10T03:59:23;14.40;99.90
11838;DHT22;5978;51.020;6.764;2023-05-10T04:01:49;14.40;99.90
11838;DHT22;5978;51.020;6.764;2023-05-10T04:04:14;14.40;99.90
11838;DHT22;5978;51.020;6.764;2023-05-10T04:06:40;14.40;99.90
11838;DHT22;5978;51.020;6.764;2023-05-10T04:09:06;14.20;99.90
11838;DHT22;5978;51.020;6.764;2023-05-10T04:11:31;14.10;99.90
11838;DHT22;5978;51.020;6.764;2023-05-10T04:13:57;14.10;99.90
11838;DHT22;5978;51.020;6.764;2023-05-10T04:16:22;14.00;99.90
11838;DHT22;5978;51.020;6.764;2023-05-10T04:18:48;13.90;99.90
11838;DHT22;5978;51.020;6.764;2023-05-10T04:21:14;13.90;99.90
11838;DHT22;5978;51.020;6.764;2023-05-10T04:23:40;14.00;99.90
11838;DHT22;5978;51.020;6.764;2023-05-10T04:26:06;13.90;99.90
11838;DHT22;5978;51.020;6.764;2023-05-10T04:28:31;13.90;99.90
11838;DHT22;5978;51.020;6.764;2023-05-10T04:31:04;13.90;99.90
11838;DHT22;5978;51.020;6.764;2023-05-10T04:33:30;13.80;99.90
11838;DHT22;5978;51.020;6.764;2023-05-10T04:35:56;13.80;99.90
11838;DHT22;5978;51.020;6.764;2023-05-10T04:38:22;13.80;99.90
11838;DHT22;5978;51.020;6.764;2023-05-10T04:40:47;13.90;99.90
11838;DHT22;5978;51.020;6.764;2023-05-10T04:43:13;13.80;99.90
11838;DHT22;5978;51.020;6.764;2023-05-10T04:45:38;13.80;99.90
11838;DHT22;5978;51.020;6.764;2023-05-10T04:48:04;13.80;99.90
11838;DHT22;5978;51.020;6.764;2023-05-10T04:50:30;13.80;99.90
11838;DHT22;5978;51.020;6.764;2023-05-10T04:52:55;13.90;99.90
11838;DHT22;5978;51.020;6.764;2023-05-10T04:55:21;13.90;99.90
11838;DHT22;5978;51.020;6.764;2023-05-10T04:57:46;14.00;99.90
11838;DHT22;5978;51.020;6.764;2023-05-10T05:00:12;14.10;99.90
11838;DHT22;5978;51.020;6.764;2023-05-10T05:02:38;14.00;99.90
11838;DHT22;5978;51.020;6.764;2023-05-10T05:05:04;14.00;99.90
11838;DHT22;5978;51.020;6.764;2023-05-10T05:07:29;14.00;99.90
11838;DHT22;5978;51.020;6.764;2023-05-10T05:09:56;13.90;99.90
11838;DHT22;5978;51.020;6.764;2023-05-10T05:12:21;13.90;99.90
11838;DHT22;5978;51.020;6.764;2023-05-10T05:14:47;13.90;99.90
11838;DHT22;5978;51.020;6.764;2023-05-10T05:17:12;13.90;99.90
11838;DHT22;5978;51.020;6.764;2023-05-10T05:19:38;13.90;99.90
11838;DHT22;5978;51.020;6.764;2023-05-10T05:22:03;13.90;99.90
11838;DHT22;5978;51.020;6.764;2023-05-10T05:24:35;13.90;99.90
11838;DHT22;5978;51.020;6.764;2023-05-10T05:27:01;13.90;99.90
11838;DHT22;5978;51.020;6.764;2023-05-10T05:29:27;13.90;99.90
11838;DHT22;5978;51.020;6.764;2023-05-10T05:31:52;14.00;99.90
11838;DHT22;5978;51.020;6.764;2023-05-10T05:34:18;14.00;99.90
11838;DHT22;5978;51.020;6.764;2023-05-10T05:36:45;14.10;99.90
11838;DHT22;5978;51.020;6.764;2023-05-10T05:39:11;14.20;99.90
11838;DHT22;5978;51.020;6.764;2023-05-10T05:41:36;14.10;99.90
11838;DHT22;5978;51.020;6.764;2023-05-10T05:44:02;14.20;99.90
11838;DHT22;5978;51.020;6.764;2023-05-10T05:46:27;14.20;99.90
11838;DHT22;5978;51.020;6.764;2023-05-10T05:48:53;14.20;99.90
11838;DHT22;5978;51.020;6.764;2023-05-10T05:51:19;14.30;99.90
11838;DHT22;5978;51.020;6.764;2023-05-10T05:53:44;14.30;99.90
11838;DHT22;5978;51.020;6.764;2023-05-10T05:56:10;14.30;99.90
11838;DHT22;5978;51.020;6.764;2023-05-10T05:58:36;14.40;99.90
11838;DHT22;5978;51.020;6.764;2023-05-10T06:01:01;14.30;99.90
11838;DHT22;5978;51.020;6.764;2023-05-10T06:03:27;14.30;99.90
11838;DHT22;5978;51.020;6.764;2023-05-10T06:05:52;14.30;99.90
11838;DHT22;5978;51.020;6.764;2023-05-10T06:08:18;14.30;99.90
11838;DHT22;5978;51.020;6.764;2023-05-10T06:10:43;14.30;99.90
11838;DHT22;5978;51.020;6.764;2023-05-10T06:13:09;14.20;99.90
11838;DHT22;5978;51.020;6.764;2023-05-10T06:15:35;14.20;99.90
11838;DHT22;5978;51.020;6.764;2023-05-10T06:18:01;14.20;99.90
11838;DHT22;5978;51.020;6.764;2023-05-10T06:20:26;14.10;99.90
11838;DHT22;5978;51.020;6.764;2023-05-10T06:22:52;14.10;99.90
11838;DHT22;5978;51.020;6.764;2023-05-10T06:25:17;14.10;99.90
11838;DHT22;5978;51.020;6.764;2023-05-10T06:27:43;14.10;99.90
11838;DHT22;5978;51.020;6.764;2023-05-10T06:30:09;14.10;99.90
11838;DHT22;5978;51.020;6.764;2023-05-10T06:32:35;14.10;99.90
11838;DHT22;5978;51.020;6.764;2023-05-10T06:35:01;14.00;99.90
11838;DHT22;5978;51.020;6.764;2023-05-10T06:37:27;14.00;99.90
11838;DHT22;5978;51.020;6.764;2023-05-10T06:39:52;14.00;99.90
11838;DHT22;5978;51.020;6.764;2023-05-10T06:42:18;14.10;99.90
11838;DHT22;5978;51.020;6.764;2023-05-10T06:44:43;14.10;99.90
11838;DHT22;5978;51.020;6.764;2023-05-10T06:47:09;14.10;99.90
11838;DHT22;5978;51.020;6.764;2023-05-10T06:49:34;14.20;99.90
11838;DHT22;5978;51.020;6.764;2023-05-10T06:52:00;14.30;99.90
11838;DHT22;5978;51.020;6.764;2023-05-10T06:54:26;14.30;99.90
11838;DHT22;5978;51.020;6.764;2023-05-10T06:56:51;14.50;99.90
11838;DHT22;5978;51.020;6.764;2023-05-10T06:59:17;14.40;99.90
11838;DHT22;5978;51.020;6.764;2023-05-10T07:01:44;14.40;99.90
11838;DHT22;5978;51.020;6.764;2023-05-10T07:04:09;14.50;99.90
11838;DHT22;5978;51.020;6.764;2023-05-10T07:06:35;14.40;99.90
11838;DHT22;5978;51.020;6.764;2023-05-10T07:09:01;14.50;99.90
11838;DHT22;5978;51.020;6.764;2023-05-10T07:11:26;14.70;99.90
11838;DHT22;5978;51.020;6.764;2023-05-10T07:13:52;14.80;99.90
11838;DHT22;5978;51.020;6.764;2023-05-10T07:16:18;14.80;99.90
11838;DHT22;5978;51.020;6.764;2023-05-10T07:18:44;14.70;99.90
11838;DHT22;5978;51.020;6.764;2023-05-10T07:21:09;14.80;99.90
11838;DHT22;5978;51.020;6.764;2023-05-10T07:23:35;14.80;99.90
11838;DHT22;5978;51.020;6.764;2023-05-10T07:26:00;14.90;99.90
11838;DHT22;5978;51.020;6.764;2023-05-10T07:28:27;15.00;99.90
11838;DHT22;5978;51.020;6.764;2023-05-10T07:30:53;15.00;99.90
11838;DHT22;5978;51.020;6.764;2023-05-10T07:33:18;15.00;99.90
11838;DHT22;5978;51.020;6.764;2023-05-10T07:35:44;15.00;99.90
11838;DHT22;5978;51.020;6.764;2023-05-10T07:38:09;15.00;99.90
11838;DHT22;5978;51.020;6.764;2023-05-10T07:40:36;15.10;99.90
11838;DHT22;5978;51.020;6.764;2023-05-10T07:43:02;15.10;99.90
11838;DHT22;5978;51.020;6.764;2023-05-10T07:45:28;15.20;99.90
11838;DHT22;5978;51.020;6.764;2023-05-10T07:47:53;15.20;99.90
11838;DHT22;5978;51.020;6.764;2023-05-10T07:50:19;15.20;99.90
11838;DHT22;5978;51.020;6.764;2023-05-10T07:52:46;15.10;99.90
11838;DHT22;5978;51.020;6.764;2023-05-10T07:55:12;15.10;99.90
11838;DHT22;5978;51.020;6.764;2023-05-10T07:57:38;15.10;99.90
11838;DHT22;5978;51.020;6.764;2023-05-10T08:00:04;15.20;99.90
11838;DHT22;5978;51.020;6.764;2023-05-10T08:02:29;15.30;99.90
11838;DHT22;5978;51.020;6.764;2023-05-10T08:04:55;15.30;99.90
11838;DHT22;5978;51.020;6.764;2023-05-10T08:07:21;15.30;99.90
11838;DHT22;5978;51.020;6.764;2023-05-10T08:09:46;15.20;99.90
11838;DHT22;5978;51.020;6.764;2023-05-10T08:12:12;15.30;99.90
11838;DHT22;5978;51.020;6.764;2023-05-10T08:14:37;15.10;99.90
11838;DHT22;5978;51.020;6.764;2023-05-10T08:17:04;15.00;99.90
11838;DHT22;5978;51.020;6.764;2023-05-10T08:19:29;14.90;99.90
11838;DHT22;5978;51.020;6.764;2023-05-10T08:21:55;14.90;99.90
11838;DHT22;5978;51.020;6.764;2023-05-10T08:24:23;15.00;99.90
11838;DHT22;5978;51.020;6.764;2023-05-10T08:26:49;15.10;99.90
11838;DHT22;5978;51.020;6.764;2023-05-10T08:29:15;15.10;99.90
11838;DHT22;5978;51.020;6.764;2023-05-10T08:31:40;15.10;99.90
11838;DHT22;5978;51.020;6.764;2023-05-10T08:34:06;15.20;99.90
11838;DHT22;5978;51.020;6.764;2023-05-10T08:36:32;15.20;99.90
11838;DHT22;5978;51.020;6.764;2023-05-10T08:38:58;15.10;99.90
11838;DHT22;5978;51.020;6.764;2023-05-10T08:41:24;15.20;99.90
11838;DHT22;5978;51.020;6.764;2023-05-10T08:43:51;15.30;99.90
11838;DHT22;5978;51.020;6.764;2023-05-10T08:46:19;15.40;99.90
11838;DHT22;5978;51.020;6.764;2023-05-10T08:48:45;15.50;99.90
11838;DHT22;5978;51.020;6.764;2023-05-10T08:51:14;15.40;99.90
11838;DHT22;5978;51.020;6.764;2023-05-10T08:53:40;15.40;99.90
11838;DHT22;5978;51.020;6.764;2023-05-10T08:56:06;15.40;99.90
11838;DHT22;5978;51.020;6.764;2023-05-10T08:58:32;15.60;99.90
11838;DHT22;5978;51.020;6.764;2023-05-10T09:00:58;15.70;99.90
11838;DHT22;5978;51.020;6.764;2023-05-10T09:03:24;15.70;99.90
11838;DHT22;5978;51.020;6.764;2023-05-10T09:05:50;15.50;99.90
11838;DHT22;5978;51.020;6.764;2023-05-10T09:08:16;15.40;99.90
11838;DHT22;5978;51.020;6.764;2023-05-10T09:10:43;15.40;99.90
11838;DHT22;5978;51.020;6.764;2023-05-10T09:13:10;15.30;99.90
11838;DHT22;5978;51.020;6.764;2023-05-10T09:15:37;15.40;99.90
11838;DHT22;5978;51.020;6.764;2023-05-10T09:18:03;15.50;99.90
11838;DHT22;5978;51.020;6.764;2023-05-10T09:20:29;15.50;99.90
11838;DHT22;5978;51.020;6.764;2023-05-10T09:22:54;15.70;99.90
11838;DHT22;5978;51.020;6.764;2023-05-10T09:25:20;15.80;99.90
11838;DHT22;5978;51.020;6.764;2023-05-10T09:27:47;15.90;99.90
11838;DHT22;5978;51.020;6.764;2023-05-10T09:30:17;15.90;99.90
11838;DHT22;5978;51.020;6.764;2023-05-10T09:32:48;16.10;99.90
11838;DHT22;5978;51.020;6.764;2023-05-10T09:35:17;16.30;99.90
11838;DHT22;5978;51.020;6.764;2023-05-10T09:37:46;16.40;99.90
11838;DHT22;5978;51.020;6.764;2023-05-10T09:40:33;16.50;99.90
11838;DHT22;5978;51.020;6.764;2023-05-10T09:43:07;16.50;99.90
11838;DHT22;5978;51.020;6.764;2023-05-10T09:45:34;16.40;99.90
11838;DHT22;5978;51.020;6.764;2023-05-10T09:48:01;16.50;99.90
11838;DHT22;5978;51.020;6.764;2023-05-10T09:50:28;16.60;99.90
11838;DHT22;5978;51.020;6.764;2023-05-10T09:52:59;16.60;99.90
11838;DHT22;5978;51.020;6.764;2023-05-10T09:55:41;16.70;99.90
11838;DHT22;5978;51.020;6.764;2023-05-10T09:58:07;16.80;99.90
11838;DHT22;5978;51.020;6.764;2023-05-10T10:00:42;17.00;99.90
11838;DHT22;5978;51.020;6.764;2023-05-10T10:03:19;16.80;99.90
11838;DHT22;5978;51.020;6.764;2023-05-10T10:05:46;17.00;99.90
11838;DHT22;5978;51.020;6.764;2023-05-10T10:08:12;17.00;99.90
11838;DHT22;5978;51.020;6.764;2023-05-10T10:10:38;17.10;99.90
11838;DHT22;5978;51.020;6.764;2023-05-10T10:13:07;17.00;99.90
11838;DHT22;5978;51.020;6.764;2023-05-10T10:15:34;17.10;99.90
11838;DHT22;5978;51.020;6.764;2023-05-10T10:18:00;17.40;99.90
11838;DHT22;5978;51.020;6.764;2023-05-10T10:20:26;17.50;99.90
11838;DHT22;5978;51.020;6.764;2023-05-10T10:22:52;17.30;99.90
11838;DHT22;5978;51.020;6.764;2023-05-10T10:25:19;17.50;99.90
11838;DHT22;5978;51.020;6.764;2023-05-10T10:35:49;17.60;99.90
11838;DHT22;5978;51.020;6.764;2023-05-10T10:38:16;18.00;99.90
11838;DHT22;5978;51.020;6.764;2023-05-10T10:40:42;18.10;99.90
11838;DHT22;5978;51.020;6.764;2023-05-10T10:43:37;18.30;99.90
11838;DHT22;5978;51.020;6.764;2023-05-10T10:46:15;18.10;99.90
11838;DHT22;5978;51.020;6.764;2023-05-10T10:48:48;17.90;99.90
11838;DHT22;5978;51.020;6.764;2023-05-10T10:51:14;17.80;99.90
11838;DHT22;5978;51.020;6.764;2023-05-10T10:53:40;17.90;99.90
11838;DHT22;5978;51.020;6.764;2023-05-10T10:56:08;17.80;99.90
11838;DHT22;5978;51.020;6.764;2023-05-10T10:58:35;17.50;99.90
11838;DHT22;5978;51.020;6.764;2023-05-10T11:01:32;17.60;99.90
11838;DHT22;5978;51.020;6.764;2023-05-10T11:06:34;17.30;99.90
11838;DHT22;5978;51.020;6.764;2023-05-10T11:09:07;17.10;99.90
11838;DHT22;5978;51.020;6.764;2023-05-10T11:11:34;17.10;99.90
11838;DHT22;5978;51.020;6.764;2023-05-10T11:14:04;17.20;99.90
11838;DHT22;5978;51.020;6.764;2023-05-10T11:16:41;17.30;99.90
11838;DHT22;5978;51.020;6.764;2023-05-10T11:19:12;17.20;99.90
11838;DHT22;5978;51.020;6.764;2023-05-10T11:24:36;17.60;99.90
11838;DHT22;5978;51.020;6.764;2023-05-10T11:27:02;17.80;99.90
11838;DHT22;5978;51.020;6.764;2023-05-10T11:29:28;17.70;99.90
11838;DHT22;5978;51.020;6.764;2023-05-10T11:31:57;17.70;99.90
11838;DHT22;5978;51.020;6.764;2023-05-10T11:34:32;17.80;99.90
11838;DHT22;5978;51.020;6.764;2023-05-10T11:37:01;17.80;99.90
11838;DHT22;5978;51.020;6.764;2023-05-10T11:39:28;18.20;99.90
11838;DHT22;5978;51.020;6.764;2023-05-10T11:41:54;18.60;99.90
11838;DHT22;5978;51.020;6.764;2023-05-10T11:44:20;19.10;99.90
11838;DHT22;5978;51.020;6.764;2023-05-10T11:46:46;19.20;99.90
11838;DHT22;5978;51.020;6.764;2023-05-10T11:49:11;19.30;99.90
11838;DHT22;5978;51.020;6.764;2023-05-10T11:51:38;19.20;99.90
11838;DHT22;5978;51.020;6.764;2023-05-10T11:54:09;20.40;99.90
11838;DHT22;5978;51.020;6.764;2023-05-10T11:56:39;21.10;99.90
11838;DHT22;5978;51.020;6.764;2023-05-10T11:59:05;21.80;99.90
11838;DHT22;5978;51.020;6.764;2023-05-10T12:01:31;22.50;99.90
11838;DHT22;5978;51.020;6.764;2023-05-10T12:03:58;23.20;99.90
11838;DHT22;5978;51.020;6.764;2023-05-10T12:06:29;23.80;99.90
11838;DHT22;5978;51.020;6.764;2023-05-10T12:08:56;23.80;99.90
11838;DHT22;5978;51.020;6.764;2023-05-10T12:11:25;24.60;99.90
11838;DHT22;5978;51.020;6.764;2023-05-10T12:13:50;25.20;99.90
11838;DHT22;5978;51.020;6.764;2023-05-10T12:18:44;25.30;99.20
11838;DHT22;5978;51.020;6.764;2023-05-10T12:21:10;24.50;99.90
11838;DHT22;5978;51.020;6.764;2023-05-10T12:23:37;24.10;99.90
11838;DHT22;5978;51.020;6.764;2023-05-10T12:26:03;23.10;99.90
11838;DHT22;5978;51.020;6.764;2023-05-10T12:28:32;22.40;99.90
11838;DHT22;5978;51.020;6.764;2023-05-10T12:30:59;21.80;99.90
11838;DHT22;5978;51.020;6.764;2023-05-10T12:33:25;21.40;99.90
11838;DHT22;5978;51.020;6.764;2023-05-10T12:35:54;22.00;99.90
11838;DHT22;5978;51.020;6.764;2023-05-10T12:38:28;23.30;99.90
11838;DHT22;5978;51.020;6.764;2023-05-10T12:40:57;23.00;99.90
11838;DHT22;5978;51.020;6.764;2023-05-10T12:43:23;22.80;99.90
11838;DHT22;5978;51.020;6.764;2023-05-10T12:45:48;21.70;99.90
11838;DHT22;5978;51.020;6.764;2023-05-10T12:48:15;21.30;99.90
11838;DHT22;5978;51.020;6.764;2023-05-10T12:50:40;20.40;99.90
11838;DHT22;5978;51.020;6.764;2023-05-10T12:53:06;20.20;99.90
11838;DHT22;5978;51.020;6.764;2023-05-10T12:55:32;20.20;99.90
11838;DHT22;5978;51.020;6.764;2023-05-10T12:57:57;19.80;99.90
11838;DHT22;5978;51.020;6.764;2023-05-10T13:00:23;19.50;99.90
11838;DHT22;5978;51.020;6.764;2023-05-10T13:02:48;19.20;99.90
11838;DHT22;5978;51.020;6.764;2023-05-10T13:05:14;19.10;99.90
11838;DHT22;5978;51.020;6.764;2023-05-10T13:07:40;18.80;99.90
11838;DHT22;5978;51.020;6.764;2023-05-10T13:10:06;18.80;99.90
11838;DHT22;5978;51.020;6.764;2023-05-10T13:12:32;19.00;99.90
11838;DHT22;5978;51.020;6.764;2023-05-10T13:14:58;19.10;99.90
11838;DHT22;5978;51.020;6.764;2023-05-10T13:17:25;18.90;99.90
11838;DHT22;5978;51.020;6.764;2023-05-10T13:19:51;18.80;99.90
11838;DHT22;5978;51.020;6.764;2023-05-10T13:22:16;18.80;99.90
11838;DHT22;5978;51.020;6.764;2023-05-10T13:24:42;18.70;99.90
11838;DHT22;5978;51.020;6.764;2023-05-10T13:27:08;18.80;99.90
11838;DHT22;5978;51.020;6.764;2023-05-10T13:29:33;18.70;99.90
11838;DHT22;5978;51.020;6.764;2023-05-10T13:31:59;18.90;99.90
11838;DHT22;5978;51.020;6.764;2023-05-10T13:34:25;19.20;99.90
11838;DHT22;5978;51.020;6.764;2023-05-10T13:36:50;19.30;99.90
11838;DHT22;5978;51.020;6.764;2023-05-10T13:39:16;19.40;99.90
11838;DHT22;5978;51.020;6.764;2023-05-10T13:41:42;19.10;99.90
11838;DHT22;5978;51.020;6.764;2023-05-10T13:44:08;19.40;99.90
11838;DHT22;5978;51.020;6.764;2023-05-10T13:46:33;19.30;99.90
11838;DHT22;5978;51.020;6.764;2023-05-10T13:48:59;19.30;99.90
11838;DHT22;5978;51.020;6.764;2023-05-10T13:51:24;19.60;99.90
11838;DHT22;5978;51.020;6.764;2023-05-10T13:53:50;19.70;99.90
11838;DHT22;5978;51.020;6.764;2023-05-10T13:56:15;20.00;99.90
11838;DHT22;5978;51.020;6.764;2023-05-10T13:58:41;20.20;99.90
11838;DHT22;5978;51.020;6.764;2023-05-10T14:01:07;20.20;99.90
11838;DHT22;5978;51.020;6.764;2023-05-10T14:03:33;20.10;99.90
11838;DHT22;5978;51.020;6.764;2023-05-10T14:05:58;20.30;99.90
11838;DHT22;5978;51.020;6.764;2023-05-10T14:08:24;20.40;99.90
11838;DHT22;5978;51.020;6.764;2023-05-10T14:10:49;20.50;99.90
11838;DHT22;5978;51.020;6.764;2023-05-10T14:13:16;20.60;99.90
11838;DHT22;5978;51.020;6.764;2023-05-10T14:15:41;20.50;99.90
11838;DHT22;5978;51.020;6.764;2023-05-10T14:18:07;20.40;99.90
11838;DHT22;5978;51.020;6.764;2023-05-10T14:20:32;20.70;99.90
11838;DHT22;5978;51.020;6.764;2023-05-10T14:22:59;20.30;99.90
11838;DHT22;5978;51.020;6.764;2023-05-10T14:25:25;20.20;99.90
11838;DHT22;5978;51.020;6.764;2023-05-10T14:27:51;20.30;99.90
11838;DHT22;5978;51.020;6.764;2023-05-10T14:30:16;20.60;99.90
11838;DHT22;5978;51.020;6.764;2023-05-10T14:32:42;20.80;99.90
11838;DHT22;5978;51.020;6.764;2023-05-10T14:35:08;21.30;99.90
11838;DHT22;5978;51.020;6.764;2023-05-10T14:37:34;21.70;99.90
11838;DHT22;5978;51.020;6.764;2023-05-10T14:39:59;21.70;99.90
11838;DHT22;5978;51.020;6.764;2023-05-10T14:42:25;21.50;99.90
11838;DHT22;5978;51.020;6.764;2023-05-10T14:44:51;21.00;99.90
11838;DHT22;5978;51.020;6.764;2023-05-10T14:47:16;20.60;99.90
11838;DHT22;5978;51.020;6.764;2023-05-10T14:49:42;20.20;99.90
11838;DHT22;5978;51.020;6.764;2023-05-10T14:52:08;20.00;99.90
11838;DHT22;5978;51.020;6.764;2023-05-10T14:54:33;19.90;99.90
11838;DHT22;5978;51.020;6.764;2023-05-10T14:56:59;20.00;99.90
11838;DHT22;5978;51.020;6.764;2023-05-10T14:59:25;20.10;99.90
11838;DHT22;5978;51.020;6.764;2023-05-10T15:01:51;20.10;99.90
11838;DHT22;5978;51.020;6.764;2023-05-10T15:04:16;20.20;99.90
11838;DHT22;5978;51.020;6.764;2023-05-10T15:06:42;20.20;99.90
11838;DHT22;5978;51.020;6.764;2023-05-10T15:09:08;19.90;99.90
11838;DHT22;5978;51.020;6.764;2023-05-10T15:11:34;19.30;99.90
11838;DHT22;5978;51.020;6.764;2023-05-10T15:14:00;19.20;99.90
11838;DHT22;5978;51.020;6.764;2023-05-10T15:16:26;19.20;99.90
11838;DHT22;5978;51.020;6.764;2023-05-10T15:18:52;19.00;99.90
11838;DHT22;5978;51.020;6.764;2023-05-10T15:21:18;18.90;99.90
11838;DHT22;5978;51.020;6.764;2023-05-10T15:23:43;19.00;99.90
11838;DHT22;5978;51.020;6.764;2023-05-10T15:26:09;18.80;99.90
11838;DHT22;5978;51.020;6.764;2023-05-10T15:28:35;18.80;99.90
11838;DHT22;5978;51.020;6.764;2023-05-10T15:31:00;18.70;99.90
11838;DHT22;5978;51.020;6.764;2023-05-10T15:33:26;18.70;99.90
11838;DHT22;5978;51.020;6.764;2023-05-10T15:35:52;18.80;99.90
11838;DHT22;5978;51.020;6.764;2023-05-10T15:38:19;18.80;99.90
11838;DHT22;5978;51.020;6.764;2023-05-10T15:40:44;18.80;99.90
11838;DHT22;5978;51.020;6.764;2023-05-10T15:43:10;19.00;99.90
11838;DHT22;5978;51.020;6.764;2023-05-10T15:45:35;19.10;99.90
11838;DHT22;5978;51.020;6.764;2023-05-10T15:48:01;19.20;99.90
11838;DHT22;5978;51.020;6.764;2023-05-10T15:50:27;19.20;99.90
11838;DHT22;5978;51.020;6.764;2023-05-10T15:52:53;19.00;99.90
11838;DHT22;5978;51.020;6.764;2023-05-10T15:55:19;19.00;99.90
11838;DHT22;5978;51.020;6.764;2023-05-10T15:57:44;19.20;99.90
11838;DHT22;5978;51.020;6.764;2023-05-10T16:00:11;19.00;99.90
11838;DHT22;5978;51.020;6.764;2023-05-10T16:02:40;19.10;99.90
11838;DHT22;5978;51.020;6.764;2023-05-10T16:05:06;19.20;99.90
11838;DHT22;5978;51.020;6.764;2023-05-10T16:07:32;19.20;99.90
11838;DHT22;5978;51.020;6.764;2023-05-10T16:09:58;19.20;99.90
11838;DHT22;5978;51.020;6.764;2023-05-10T16:12:23;19.10;99.90
11838;DHT22;5978;51.020;6.764;2023-05-10T16:14:49;19.00;99.90
11838;DHT22;5978;51.020;6.764;2023-05-10T16:17:14;19.10;99.90
11838;DHT22;5978;51.020;6.764;2023-05-10T16:19:40;19.20;99.90
11838;DHT22;5978;51.020;6.764;2023-05-10T16:22:06;19.10;99.90
11838;DHT22;5978;51.020;6.764;2023-05-10T16:24:32;18.90;99.90